createdAt,value
2023-05-14T00:00:30.020Z,18.13
2023-05-14T00:02:57.076Z,18.35
2023-05-14T00:05:25.543Z,21.85
2023-05-14T00:07:52.475Z,17.38
2023-05-14T00:10:22.017Z,17.15
2023-05-14T00:12:50.974Z,18.48
2023-05-14T00:15:18.133Z,18.55
2023-05-14T00:17:45.228Z,18.10
2023-05-14T00:20:12.535Z,16.50
2023-05-14T00:22:40.493Z,19.13
2023-05-14T00:25:08.448Z,18.63
2023-05-14T00:27:36.141Z,17.10
2023-05-14T00:30:04.601Z,20.23
2023-05-14T00:32:31.565Z,18.48
2023-05-14T00:34:58.773Z,18.05
2023-05-14T00:37:25.746Z,18.67
2023-05-14T00:39:52.678Z,15.40
2023-05-14T00:42:19.631Z,16.83
2023-05-14T00:44:46.533Z,15.35
2023-05-14T00:47:13.572Z,16.33
2023-05-14T00:49:41.375Z,18.27
2023-05-14T00:52:08.832Z,16.23
2023-05-14T00:54:36.677Z,19.83
2023-05-14T00:57:05.090Z,15.85
2023-05-14T00:59:32.396Z,19.20
2023-05-14T01:01:59.549Z,15.93
2023-05-14T01:04:26.708Z,15.77
2023-05-14T01:07:14.476Z,18.73
2023-05-14T01:09:53.951Z,17.75
2023-05-14T01:12:39.846Z,17.05
2023-05-14T01:15:13.927Z,16.35
2023-05-14T01:17:48.966Z,14.60
2023-05-14T01:22:43.925Z,20.95
2023-05-14T01:25:11.138Z,17.23
2023-05-14T01:27:59.776Z,15.15
2023-05-14T01:30:37.799Z,13.70
2023-05-14T01:33:11.966Z,13.30
2023-05-14T01:35:39.538Z,10.93
2023-05-14T01:38:10.682Z,13.68
2023-05-14T01:40:38.543Z,19.52
2023-05-14T01:43:05.936Z,17.60
2023-05-14T01:45:36.659Z,18.63
2023-05-14T01:48:05.264Z,21.73
2023-05-14T01:50:32.494Z,15.80
2023-05-14T01:53:00.107Z,17.80
2023-05-14T01:55:27.358Z,16.20
2023-05-14T01:57:54.416Z,17.50
2023-05-14T02:00:24.003Z,18.92
2023-05-14T02:02:51.394Z,20.08
2023-05-14T02:05:18.819Z,20.13
2023-05-14T02:07:46.116Z,17.20
2023-05-14T02:10:13.126Z,18.08
2023-05-14T02:12:40.061Z,16.75
2023-05-14T02:15:08.971Z,16.42
2023-05-14T02:17:35.951Z,16.60
2023-05-14T02:20:03.112Z,19.08
2023-05-14T02:22:30.103Z,15.80
2023-05-14T02:24:56.994Z,14.90
2023-05-14T02:27:23.941Z,17.50
2023-05-14T02:29:50.841Z,15.52
2023-05-14T02:32:18.169Z,17.05
2023-05-14T02:34:45.227Z,16.42
2023-05-14T02:37:12.055Z,14.68
2023-05-14T02:39:38.974Z,13.20
2023-05-14T02:42:07.146Z,15.80
2023-05-14T02:44:34.176Z,15.50
2023-05-14T02:47:01.116Z,14.15
2023-05-14T02:49:28.039Z,16.58
2023-05-14T02:51:55.195Z,16.52
2023-05-14T02:54:22.065Z,13.90
2023-05-14T02:56:49.031Z,12.98
2023-05-14T02:59:15.884Z,12.13
2023-05-14T03:01:43.180Z,11.80
2023-05-14T03:04:10.432Z,12.35
2023-05-14T03:06:37.527Z,14.10
2023-05-14T03:09:04.423Z,16.02
2023-05-14T03:11:31.357Z,14.65
2023-05-14T03:13:58.160Z,12.63
2023-05-14T03:16:24.985Z,13.27
2023-05-14T03:18:51.790Z,12.27
2023-05-14T03:21:18.756Z,13.07
2023-05-14T03:23:45.802Z,12.60
2023-05-14T03:26:12.604Z,14.75
2023-05-14T03:28:40.862Z,13.68
2023-05-14T03:31:07.749Z,11.40
2023-05-14T03:33:34.559Z,13.07
2023-05-14T03:36:01.462Z,17.23
2023-05-14T03:38:28.392Z,12.52
2023-05-14T03:40:55.311Z,16.80
2023-05-14T03:43:22.625Z,13.32
2023-05-14T03:45:52.532Z,14.75
2023-05-14T03:48:20.308Z,11.98
2023-05-14T03:50:47.463Z,14.63
2023-05-14T03:53:14.542Z,12.95
2023-05-14T03:55:41.417Z,12.77
2023-05-14T03:58:13.766Z,17.95
2023-05-14T04:00:44.504Z,13.77
2023-05-14T04:03:11.980Z,17.15
2023-05-14T04:05:38.927Z,13.10
2023-05-14T04:08:06.006Z,14.20
2023-05-14T04:10:32.875Z,12.65
2023-05-14T04:13:02.021Z,13.85
2023-05-14T04:15:29.068Z,14.40
2023-05-14T04:17:55.960Z,13.32
2023-05-14T04:20:22.989Z,14.68
2023-05-14T04:22:50.039Z,13.65
2023-05-14T04:25:18.484Z,15.57
2023-05-14T04:27:45.428Z,15.77
2023-05-14T04:30:12.994Z,16.90
2023-05-14T04:32:39.989Z,14.00
2023-05-14T04:35:07.734Z,14.77
2023-05-14T04:37:34.557Z,13.00
2023-05-14T04:40:01.695Z,14.00
2023-05-14T04:42:28.609Z,12.05
2023-05-14T04:44:55.386Z,12.05
2023-05-14T04:47:22.567Z,14.02
2023-05-14T04:49:49.489Z,13.48
2023-05-14T04:52:16.392Z,15.45
2023-05-14T04:54:43.202Z,13.68
2023-05-14T04:57:10.367Z,15.82
2023-05-14T04:59:37.283Z,12.20
2023-05-14T05:02:04.251Z,15.43
2023-05-14T05:04:31.179Z,14.13
2023-05-14T05:06:58.197Z,11.73
2023-05-14T05:09:25.033Z,11.93
2023-05-14T05:11:52.137Z,10.15
2023-05-14T05:14:19.409Z,11.70
2023-05-14T05:16:49.253Z,9.57
2023-05-14T05:19:16.520Z,11.10
2023-05-14T05:21:43.493Z,9.10
2023-05-14T05:24:10.602Z,7.22
2023-05-14T05:26:37.520Z,9.85
2023-05-14T05:29:08.139Z,8.00
2023-05-14T05:31:35.309Z,8.43
2023-05-14T05:34:04.508Z,7.25
2023-05-14T05:36:32.026Z,7.85
2023-05-14T05:38:58.852Z,8.35
2023-05-14T05:41:26.738Z,7.45
2023-05-14T05:43:53.594Z,8.60
2023-05-14T05:46:20.493Z,6.95
2023-05-14T05:48:47.494Z,10.05
2023-05-14T05:51:14.619Z,6.50
2023-05-14T05:53:41.619Z,9.48
2023-05-14T05:56:08.627Z,6.13
2023-05-14T05:58:35.824Z,8.07
2023-05-14T06:01:13.186Z,5.70
2023-05-14T06:03:40.308Z,9.15
2023-05-14T06:06:07.519Z,5.78
2023-05-14T06:15:16.112Z,6.90
2023-05-14T06:17:43.194Z,6.03
2023-05-14T06:20:11.364Z,5.10
2023-05-14T06:22:38.419Z,7.10
2023-05-14T06:25:05.817Z,7.07
2023-05-14T06:27:32.829Z,6.13
2023-05-14T06:30:01.763Z,6.25
2023-05-14T06:32:29.925Z,6.68
2023-05-14T06:34:57.070Z,5.78
2023-05-14T06:37:24.044Z,6.97
2023-05-14T06:39:51.267Z,9.77
2023-05-14T06:42:18.999Z,7.38
2023-05-14T06:44:46.547Z,6.85
2023-05-14T06:47:13.808Z,6.13
2023-05-14T06:49:40.850Z,6.13
2023-05-14T06:52:07.991Z,6.20
2023-05-14T06:54:35.106Z,8.90
2023-05-14T06:57:02.090Z,5.20
2023-05-14T06:59:29.130Z,5.72
2023-05-14T07:01:56.350Z,4.93
2023-05-14T07:04:23.964Z,4.70
2023-05-14T07:06:51.670Z,4.28
2023-05-14T07:09:18.880Z,4.10
2023-05-14T07:11:46.540Z,5.72
2023-05-14T07:14:13.830Z,7.55
2023-05-14T07:16:41.749Z,4.45
2023-05-14T07:19:09.285Z,4.22
2023-05-14T07:21:36.360Z,7.00
2023-05-14T07:24:03.564Z,5.78
2023-05-14T07:26:31.624Z,5.40
2023-05-14T07:28:58.963Z,5.10
2023-05-14T07:31:26.127Z,3.50
2023-05-14T07:33:53.216Z,3.97
2023-05-14T07:36:20.283Z,12.05
2023-05-14T07:38:47.402Z,5.53
2023-05-14T07:41:14.387Z,5.63
2023-05-14T07:43:41.508Z,3.20
2023-05-14T07:46:08.530Z,4.00
2023-05-14T07:48:35.538Z,5.43
2023-05-14T07:51:02.594Z,5.70
2023-05-14T07:53:29.799Z,7.68
2023-05-14T07:55:56.978Z,4.72
2023-05-14T07:58:25.138Z,4.75
2023-05-14T08:00:52.259Z,6.40
2023-05-14T08:03:19.672Z,4.38
2023-05-14T08:05:46.694Z,5.28
2023-05-14T08:08:13.761Z,6.32
2023-05-14T08:10:40.819Z,3.30
2023-05-14T08:13:08.267Z,5.45
2023-05-14T08:15:35.630Z,4.32
2023-05-14T08:18:03.949Z,5.32
2023-05-14T08:20:31.507Z,4.05
2023-05-14T08:22:58.828Z,4.30
2023-05-14T08:25:25.778Z,4.65
2023-05-14T08:27:54.284Z,3.58
2023-05-14T08:30:23.057Z,5.72
2023-05-14T08:32:50.549Z,2.88
2023-05-14T08:35:18.330Z,3.65
2023-05-14T08:37:45.822Z,2.72
2023-05-14T08:40:13.233Z,2.72
2023-05-14T08:42:45.017Z,4.13
2023-05-14T08:45:25.873Z,2.95
2023-05-14T08:47:53.726Z,3.08
2023-05-14T08:50:23.011Z,2.58
2023-05-14T08:52:51.670Z,5.38
2023-05-14T08:55:20.021Z,4.70
2023-05-14T08:57:47.357Z,4.40
2023-05-14T09:00:15.701Z,3.72
2023-05-14T09:02:45.053Z,2.75
2023-05-14T09:05:12.620Z,5.53
2023-05-14T09:07:39.888Z,3.35
2023-05-14T09:10:09.330Z,4.95
2023-05-14T09:12:36.398Z,3.72
2023-05-14T09:15:03.568Z,3.97
2023-05-14T09:17:30.681Z,3.28
2023-05-14T09:19:59.124Z,3.92
2023-05-14T09:22:31.994Z,3.88
2023-05-14T09:25:09.775Z,4.20
2023-05-14T09:27:37.236Z,3.65
2023-05-14T09:30:09.708Z,3.17
2023-05-14T09:32:38.309Z,4.75
2023-05-14T09:35:20.111Z,4.15
2023-05-14T09:37:49.914Z,2.72
2023-05-14T09:40:19.025Z,3.55
2023-05-14T09:42:46.943Z,4.68
2023-05-14T09:45:14.202Z,3.38
2023-05-14T09:47:41.456Z,5.10
2023-05-14T09:50:09.715Z,3.15
2023-05-14T09:52:37.388Z,2.95
2023-05-14T09:55:04.884Z,3.10
2023-05-14T09:57:32.078Z,3.47
2023-05-14T09:59:59.206Z,3.30
2023-05-14T10:02:34.048Z,5.03
2023-05-14T10:05:04.656Z,3.20
2023-05-14T10:07:37.629Z,3.08
2023-05-14T10:10:07.919Z,3.10
2023-05-14T10:12:38.956Z,6.35
2023-05-14T10:15:17.928Z,2.20
2023-05-14T10:17:49.657Z,4.78
2023-05-14T10:20:17.979Z,2.83
2023-05-14T10:22:45.498Z,4.53
2023-05-14T10:25:13.160Z,3.22
2023-05-14T10:27:41.217Z,2.30
2023-05-14T10:30:15.406Z,2.38
2023-05-14T10:32:44.259Z,3.07
2023-05-14T10:35:25.804Z,3.95
2023-05-14T10:37:53.062Z,1.90
2023-05-14T10:40:23.722Z,2.05
2023-05-14T10:42:51.023Z,3.05
2023-05-14T10:45:18.169Z,3.05
2023-05-14T10:47:47.421Z,2.00
2023-05-14T10:50:15.840Z,2.92
2023-05-14T10:52:44.160Z,5.13
2023-05-14T10:55:15.077Z,3.83
2023-05-14T10:57:46.194Z,2.63
2023-05-14T11:00:14.630Z,2.13
2023-05-14T11:02:44.499Z,4.15
2023-05-14T11:05:17.395Z,2.00
2023-05-14T11:07:47.848Z,2.13
2023-05-14T11:10:20.371Z,2.47
2023-05-14T11:12:50.944Z,1.75
2023-05-14T11:15:24.695Z,4.68
2023-05-14T11:17:52.925Z,2.05
2023-05-14T11:20:20.850Z,2.45
2023-05-14T11:22:49.376Z,2.85
2023-05-14T11:25:26.000Z,2.88
2023-05-14T11:27:56.075Z,1.95
2023-05-14T11:30:30.385Z,4.28
2023-05-14T11:32:58.277Z,3.63
2023-05-14T11:35:26.688Z,3.80
2023-05-14T11:37:54.010Z,3.25
2023-05-14T11:40:21.345Z,2.55
2023-05-14T11:42:52.563Z,2.25
2023-05-14T11:45:30.092Z,2.05
2023-05-14T11:47:57.174Z,3.45
2023-05-14T11:50:24.417Z,4.97
2023-05-14T11:52:56.160Z,2.47
2023-05-14T11:55:23.254Z,2.33
2023-05-14T11:57:51.228Z,2.15
2023-05-14T12:00:22.255Z,6.22
2023-05-14T12:02:50.131Z,4.18
2023-05-14T12:05:17.624Z,2.45
2023-05-14T12:07:47.976Z,3.42
2023-05-14T12:10:16.001Z,5.25
2023-05-14T12:12:47.347Z,4.97
2023-05-14T12:15:16.618Z,2.40
2023-05-14T12:17:49.767Z,4.03
2023-05-14T12:20:17.548Z,3.08
2023-05-14T12:22:44.899Z,3.85
2023-05-14T12:25:13.958Z,4.93
2023-05-14T12:27:41.924Z,3.30
2023-05-14T12:32:43.153Z,3.45
2023-05-14T12:35:10.923Z,2.65
2023-05-14T12:37:40.031Z,2.55
2023-05-14T12:40:11.027Z,3.95
2023-05-14T12:42:38.248Z,3.38
2023-05-14T12:45:08.144Z,3.92
2023-05-14T12:47:36.559Z,3.20
2023-05-14T12:50:03.903Z,3.95
2023-05-14T12:55:01.653Z,3.53
2023-05-14T12:57:29.991Z,6.00
2023-05-14T12:59:57.970Z,3.03
2023-05-14T13:02:26.296Z,3.17
2023-05-14T13:04:53.318Z,3.60
2023-05-14T13:07:20.709Z,3.05
2023-05-14T13:09:48.451Z,5.55
2023-05-14T13:12:15.896Z,6.50
2023-05-14T13:14:43.044Z,5.57
2023-05-14T13:17:10.294Z,4.15
2023-05-14T13:19:37.498Z,4.70
2023-05-14T13:22:05.158Z,3.53
2023-05-14T13:24:32.245Z,6.30
2023-05-14T13:26:59.525Z,7.63
2023-05-14T13:29:29.878Z,6.95
2023-05-14T13:31:56.934Z,3.30
2023-05-14T13:34:23.920Z,4.55
2023-05-14T13:36:51.016Z,3.13
2023-05-14T13:39:22.554Z,3.10
2023-05-14T13:41:50.782Z,3.55
2023-05-14T13:44:18.129Z,4.20
2023-05-14T13:46:45.251Z,3.45
2023-05-14T13:49:12.248Z,4.05
2023-05-14T13:51:39.299Z,4.57
2023-05-14T13:54:06.353Z,4.20
2023-05-14T13:56:33.278Z,4.35
2023-05-14T13:59:00.344Z,6.88
2023-05-14T14:01:27.907Z,4.57
2023-05-14T14:03:54.791Z,4.55
2023-05-14T14:06:21.710Z,4.10
2023-05-14T14:08:48.857Z,4.20
2023-05-14T14:11:17.232Z,4.60
2023-05-14T14:13:46.452Z,4.45
2023-05-14T14:16:13.782Z,5.85
2023-05-14T14:18:41.609Z,4.80
2023-05-14T14:21:09.089Z,4.05
2023-05-14T14:23:36.069Z,4.97
2023-05-14T14:26:03.075Z,5.10
2023-05-14T14:28:30.195Z,6.35
2023-05-14T14:30:57.145Z,5.03
2023-05-14T14:33:24.358Z,6.40
2023-05-14T14:35:51.788Z,5.78
2023-05-14T14:38:19.099Z,4.30
2023-05-14T14:40:46.444Z,8.70
2023-05-14T14:43:13.562Z,5.97
2023-05-14T14:45:40.787Z,6.45
2023-05-14T14:48:39.496Z,7.20
2023-05-14T14:51:07.928Z,5.57
2023-05-14T14:53:36.144Z,5.18
2023-05-14T14:56:03.171Z,6.75
2023-05-14T14:58:31.205Z,5.78
2023-05-14T15:00:58.931Z,6.40
2023-05-14T15:03:26.593Z,3.88
2023-05-14T15:05:54.077Z,5.13
2023-05-14T15:08:29.874Z,5.20
2023-05-14T15:10:57.270Z,6.22
2023-05-14T15:13:24.847Z,4.82
2023-05-14T15:15:52.702Z,7.85
2023-05-14T15:18:19.866Z,6.53
2023-05-14T15:20:46.994Z,5.50
2023-05-14T15:23:14.039Z,5.20
2023-05-14T15:25:40.993Z,6.15
2023-05-14T15:28:08.209Z,5.28
2023-05-14T15:30:35.279Z,3.83
2023-05-14T15:33:02.390Z,3.50
2023-05-14T15:35:29.538Z,6.30
2023-05-14T15:37:59.342Z,4.50
2023-05-14T15:40:27.881Z,4.40
2023-05-14T15:42:54.949Z,4.75
2023-05-14T15:45:21.879Z,6.63
2023-05-14T15:47:48.922Z,4.43
2023-05-14T15:50:16.054Z,4.97
2023-05-14T15:52:43.175Z,4.18
2023-05-14T15:55:10.542Z,5.85
2023-05-14T15:57:37.600Z,3.88
2023-05-14T16:00:11.262Z,4.78
2023-05-14T16:02:39.270Z,4.80
2023-05-14T16:05:07.893Z,5.80
2023-05-14T16:07:35.114Z,5.13
2023-05-14T16:10:02.149Z,4.40
2023-05-14T16:12:29.139Z,9.45
2023-05-14T16:14:57.775Z,6.53
2023-05-14T16:17:24.868Z,4.60
2023-05-14T16:19:53.447Z,5.53
2023-05-14T16:22:22.264Z,7.20
2023-05-14T16:24:49.222Z,5.97
2023-05-14T16:27:18.517Z,4.50
2023-05-14T16:29:45.832Z,5.35
2023-05-14T16:32:13.419Z,5.90
2023-05-14T16:34:40.715Z,6.03
2023-05-14T16:37:08.164Z,6.05
2023-05-14T16:39:35.174Z,6.85
2023-05-14T16:42:02.173Z,5.88
2023-05-14T16:44:29.074Z,4.60
2023-05-14T16:46:56.742Z,4.55
2023-05-14T16:49:23.886Z,4.85
2023-05-14T16:51:51.133Z,5.40
2023-05-14T16:54:18.095Z,6.95
2023-05-14T16:56:48.369Z,4.93
2023-05-14T16:59:16.127Z,8.93
2023-05-14T17:01:48.149Z,7.30
2023-05-14T17:04:15.598Z,7.53
2023-05-14T17:06:42.867Z,5.90
2023-05-14T17:09:10.293Z,7.13
2023-05-14T17:11:37.367Z,6.75
2023-05-14T17:14:04.563Z,4.75
2023-05-14T17:16:32.155Z,6.03
2023-05-14T17:18:59.204Z,6.72
2023-05-14T17:21:26.417Z,6.43
2023-05-14T17:23:53.374Z,6.78
2023-05-14T17:26:21.243Z,5.10
2023-05-14T17:28:48.194Z,5.30
2023-05-14T17:31:15.232Z,3.95
2023-05-14T17:33:42.272Z,3.92
2023-05-14T17:36:09.412Z,4.60
2023-05-14T17:38:36.524Z,5.93
2023-05-14T17:41:03.807Z,3.90
2023-05-14T17:43:30.828Z,4.20
2023-05-14T17:45:57.821Z,9.25
2023-05-14T17:48:24.922Z,4.22
2023-05-14T17:50:52.184Z,5.45
2023-05-14T17:53:19.373Z,6.07
2023-05-14T17:55:46.504Z,4.28
2023-05-14T17:58:15.663Z,4.05
2023-05-14T18:00:43.753Z,5.22
2023-05-14T18:03:11.654Z,4.97
2023-05-14T18:05:38.970Z,6.53
2023-05-14T18:08:06.065Z,5.28
2023-05-14T18:10:33.135Z,4.13
2023-05-14T18:13:01.652Z,4.43
2023-05-14T18:15:31.532Z,4.20
2023-05-14T18:17:58.597Z,3.80
2023-05-14T18:20:25.788Z,6.22
2023-05-14T18:22:52.770Z,4.72
2023-05-14T18:25:23.268Z,6.57
2023-05-14T18:27:50.662Z,4.65
2023-05-14T18:30:18.140Z,4.43
2023-05-14T18:32:45.778Z,4.93
2023-05-14T18:35:13.782Z,4.20
2023-05-14T18:37:41.207Z,5.07
2023-05-14T18:40:09.762Z,4.82
2023-05-14T18:42:37.139Z,4.93
2023-05-14T18:45:04.869Z,4.43
2023-05-14T18:47:33.045Z,4.82
2023-05-14T18:50:02.202Z,5.78
2023-05-14T18:52:29.910Z,4.22
2023-05-14T18:54:56.937Z,6.22
2023-05-14T18:57:24.125Z,4.25
2023-05-14T18:59:52.236Z,6.50
2023-05-14T19:02:19.908Z,4.78
2023-05-14T19:04:52.629Z,4.82
2023-05-14T19:07:22.353Z,6.82
2023-05-14T19:09:50.695Z,4.97
2023-05-14T19:12:19.268Z,5.63
2023-05-14T19:14:47.191Z,7.57
2023-05-14T19:17:14.507Z,8.00
2023-05-14T19:19:41.596Z,6.47
2023-05-14T19:22:08.685Z,6.13
2023-05-14T19:24:37.761Z,5.80
2023-05-14T19:27:04.964Z,7.05
2023-05-14T19:29:34.668Z,5.57
2023-05-14T19:32:01.742Z,6.13
2023-05-14T19:34:29.044Z,7.63
2023-05-14T19:36:56.223Z,5.75
2023-05-14T19:39:23.437Z,7.40
2023-05-14T19:41:50.529Z,9.38
2023-05-14T19:44:17.666Z,7.53
2023-05-14T19:46:45.354Z,12.60
2023-05-14T19:49:12.729Z,5.32
2023-05-14T19:51:40.105Z,8.05
2023-05-14T19:54:07.359Z,7.75
2023-05-14T19:56:34.300Z,5.90
2023-05-14T19:59:01.476Z,7.55
2023-05-14T20:01:29.017Z,7.68
2023-05-14T20:03:55.971Z,6.35
2023-05-14T20:06:23.048Z,6.57
2023-05-14T20:08:51.602Z,6.20
2023-05-14T20:11:19.975Z,7.68
2023-05-14T20:13:47.497Z,6.45
2023-05-14T20:16:16.908Z,5.70
2023-05-14T20:18:44.971Z,7.85
2023-05-14T20:21:12.498Z,9.27
2023-05-14T20:23:39.487Z,7.80
2023-05-14T20:26:06.995Z,7.68
2023-05-14T20:28:34.338Z,7.03
2023-05-14T20:31:04.076Z,6.70
2023-05-14T20:33:31.400Z,8.32
2023-05-14T20:35:58.496Z,7.15
2023-05-14T20:38:29.515Z,7.07
2023-05-14T20:40:57.000Z,6.22
2023-05-14T20:43:24.305Z,7.80
2023-05-14T20:45:51.346Z,8.38
2023-05-14T20:48:21.342Z,9.68
2023-05-14T20:50:48.467Z,7.07
2023-05-14T20:53:15.496Z,8.43
2023-05-14T20:55:42.577Z,7.90
2023-05-14T20:58:09.789Z,8.82
2023-05-14T21:00:36.800Z,7.82
2023-05-14T21:03:04.206Z,7.38
2023-05-14T21:05:31.286Z,8.15
2023-05-14T21:07:58.431Z,9.27
2023-05-14T21:10:25.890Z,9.18
2023-05-14T21:12:53.287Z,7.90
2023-05-14T21:15:20.723Z,9.23
2023-05-14T21:17:47.730Z,7.90
2023-05-14T21:20:15.620Z,9.88
2023-05-14T21:22:42.705Z,8.90
2023-05-14T21:25:10.053Z,7.70
2023-05-14T21:27:37.435Z,8.35
2023-05-14T21:30:04.950Z,8.82
2023-05-14T21:32:32.113Z,8.35
2023-05-14T21:34:59.368Z,9.60
2023-05-14T21:37:26.411Z,8.80
2023-05-14T21:39:53.709Z,7.68
2023-05-14T21:42:21.295Z,9.15
2023-05-14T21:44:48.339Z,10.05
2023-05-14T21:47:16.271Z,12.68
2023-05-14T21:49:43.746Z,8.32
2023-05-14T21:52:10.967Z,11.63
2023-05-14T21:54:38.089Z,9.23
2023-05-14T21:57:05.503Z,9.23
2023-05-14T21:59:39.227Z,12.73
2023-05-14T22:02:07.734Z,9.65
2023-05-14T22:04:35.350Z,9.93
2023-05-14T22:07:02.534Z,10.18
2023-05-14T22:09:30.447Z,8.23
2023-05-14T22:11:58.559Z,10.35
2023-05-14T22:14:27.395Z,11.60
2023-05-14T22:16:54.706Z,9.35
2023-05-14T22:19:22.501Z,12.95
2023-05-14T22:21:49.463Z,7.25
2023-05-14T22:24:16.373Z,11.00
2023-05-14T22:26:43.575Z,9.65
2023-05-14T22:29:10.505Z,9.30
2023-05-14T22:31:37.504Z,9.77
2023-05-14T22:34:04.455Z,8.18
2023-05-14T22:36:31.417Z,7.97
2023-05-14T22:38:58.290Z,8.40
2023-05-14T22:41:25.264Z,14.55
2023-05-14T22:43:52.165Z,11.13
2023-05-14T22:46:19.305Z,10.35
2023-05-14T22:48:49.006Z,11.20
2023-05-14T22:51:16.541Z,10.88
2023-05-14T22:53:43.471Z,9.95
2023-05-14T22:56:10.461Z,9.55
2023-05-14T22:58:37.356Z,9.32
2023-05-14T23:01:04.357Z,11.60
2023-05-14T23:03:31.279Z,11.98
2023-05-14T23:05:58.373Z,9.38
2023-05-14T23:08:25.302Z,10.43
2023-05-14T23:10:52.428Z,10.60
2023-05-14T23:13:19.431Z,9.88
2023-05-14T23:15:46.474Z,9.73
2023-05-14T23:18:13.500Z,10.63
2023-05-14T23:20:40.766Z,10.68
2023-05-14T23:23:07.692Z,11.88
2023-05-14T23:25:34.704Z,10.75
2023-05-14T23:28:01.735Z,10.07
2023-05-14T23:30:28.770Z,9.45
2023-05-14T23:32:55.851Z,10.30
2023-05-14T23:35:24.338Z,9.75
2023-05-14T23:37:51.906Z,11.57
2023-05-14T23:40:18.910Z,9.43
2023-05-14T23:42:46.551Z,12.55
2023-05-14T23:45:13.838Z,9.20
2023-05-14T23:47:41.573Z,10.45
2023-05-14T23:50:08.776Z,9.95
2023-05-14T23:52:35.916Z,10.88
2023-05-14T23:55:04.387Z,11.60
2023-05-14T23:57:31.374Z,9.40
2023-05-14T23:59:58.853Z,10.98
